sensor_id;sensor_type;location;lat;lon;timestamp;pressure;altitude;pressure_sealevel;temperature;humidity
72798;BME280;61084;55.816;37.036;2023-04-29T00:00:03;99299.06;;;6.49;68.72
72798;BME280;61084;55.816;37.036;2023-04-29T00:02:38;99306.03;;;6.49;68.02
72798;BME280;61084;55.816;37.036;2023-04-29T00:05:04;99299.00;;;6.51;68.44
72798;BME280;61084;55.816;37.036;2023-04-29T00:07:31;99304.16;;;6.52;68.87
72798;BME280;61084;55.816;37.036;2023-04-29T00:09:57;99297.41;;;6.47;68.54
72798;BME280;61084;55.816;37.036;2023-04-29T00:12:23;99299.91;;;6.50;68.61
72798;BME280;61084;55.816;37.036;2023-04-29T00:14:49;99299.22;;;6.45;65.81
72798;BME280;61084;55.816;37.036;2023-04-29T00:17:15;99300.38;;;6.38;68.00
72798;BME280;61084;55.816;37.036;2023-04-29T00:19:45;99297.75;;;6.38;68.24
72798;BME280;61084;55.816;37.036;2023-04-29T00:22:19;99291.69;;;6.37;67.48
72798;BME280;61084;55.816;37.036;2023-04-29T00:24:46;99296.19;;;6.34;68.64
72798;BME280;61084;55.816;37.036;2023-04-29T00:27:12;99298.84;;;6.32;68.57
72798;BME280;61084;55.816;37.036;2023-04-29T00:29:38;99297.38;;;6.25;68.28
72798;BME280;61084;55.816;37.036;2023-04-29T00:32:04;99297.38;;;6.25;68.93
72798;BME280;61084;55.816;37.036;2023-04-29T00:34:30;99286.25;;;6.20;68.17
72798;BME280;61084;55.816;37.036;2023-04-29T00:37:00;99284.34;;;6.25;66.60
72798;BME280;61084;55.816;37.036;2023-04-29T00:39:40;99277.38;;;6.26;68.17
72798;BME280;61084;55.816;37.036;2023-04-29T00:42:07;99274.78;;;6.26;68.07
72798;BME280;61084;55.816;37.036;2023-04-29T00:44:34;99277.16;;;6.32;68.41
72798;BME280;61084;55.816;37.036;2023-04-29T00:47:00;99272.00;;;6.30;68.54
72798;BME280;61084;55.816;37.036;2023-04-29T00:49:26;99268.47;;;6.31;68.21
72798;BME280;61084;55.816;37.036;2023-04-29T00:51:53;99272.97;;;6.28;68.24
72798;BME280;61084;55.816;37.036;2023-04-29T00:54:20;99278.91;;;6.31;67.96
72798;BME280;61084;55.816;37.036;2023-04-29T00:56:48;99275.44;;;6.31;68.15
72798;BME280;61084;55.816;37.036;2023-04-29T00:59:15;99277.25;;;6.29;68.20
72798;BME280;61084;55.816;37.036;2023-04-29T01:01:41;99278.41;;;6.22;66.57
72798;BME280;61084;55.816;37.036;2023-04-29T01:04:09;99282.03;;;6.18;67.19
72798;BME280;61084;55.816;37.036;2023-04-29T01:12:10;99278.50;;;6.19;67.97
72798;BME280;61084;55.816;37.036;2023-04-29T01:14:42;99279.31;;;6.21;67.93
72798;BME280;61084;55.816;37.036;2023-04-29T01:17:17;99281.97;;;6.19;67.41
72798;BME280;61084;55.816;37.036;2023-04-29T01:19:49;99277.56;;;6.21;67.29
72798;BME280;61084;55.816;37.036;2023-04-29T01:22:19;99279.44;;;6.18;67.85
72798;BME280;61084;55.816;37.036;2023-04-29T01:24:47;99278.56;;;6.17;68.52
72798;BME280;61084;55.816;37.036;2023-04-29T01:27:56;99284.56;;;6.19;68.17
72798;BME280;61084;55.816;37.036;2023-04-29T01:36:07;99264.59;;;6.20;68.09
72798;BME280;61084;55.816;37.036;2023-04-29T01:38:46;99266.44;;;6.16;69.77
72798;BME280;61084;55.816;37.036;2023-04-29T01:44:21;99248.16;;;6.18;67.50
72798;BME280;61084;55.816;37.036;2023-04-29T01:46:52;99245.59;;;6.16;68.52
72798;BME280;61084;55.816;37.036;2023-04-29T01:49:23;99249.94;;;6.16;68.16
72798;BME280;61084;55.816;37.036;2023-04-29T01:51:49;99238.69;;;6.15;67.96
72798;BME280;61084;55.816;37.036;2023-04-29T01:54:15;99247.41;;;6.14;67.99
72798;BME280;61084;55.816;37.036;2023-04-29T01:56:43;99250.81;;;6.16;68.31
72798;BME280;61084;55.816;37.036;2023-04-29T01:59:35;99244.56;;;6.20;69.09
72798;BME280;61084;55.816;37.036;2023-04-29T02:02:24;99247.25;;;6.19;68.20
72798;BME280;61084;55.816;37.036;2023-04-29T02:04:58;99249.91;;;6.17;67.95
72798;BME280;61084;55.816;37.036;2023-04-29T02:07:24;99249.84;;;6.19;68.31
72798;BME280;61084;55.816;37.036;2023-04-29T02:09:50;99255.13;;;6.17;68.46
72798;BME280;61084;55.816;37.036;2023-04-29T02:12:16;99264.97;;;6.09;67.31
72798;BME280;61084;55.816;37.036;2023-04-29T02:14:42;99270.47;;;6.01;69.43
72798;BME280;61084;55.816;37.036;2023-04-29T02:17:08;99267.00;;;6.01;68.98
72798;BME280;61084;55.816;37.036;2023-04-29T02:19:35;99278.38;;;5.98;68.11
72798;BME280;61084;55.816;37.036;2023-04-29T02:22:00;99288.97;;;5.94;69.49
72798;BME280;61084;55.816;37.036;2023-04-29T02:24:27;99280.44;;;5.90;68.50
72798;BME280;61084;55.816;37.036;2023-04-29T02:26:53;99279.47;;;5.93;68.11
72798;BME280;61084;55.816;37.036;2023-04-29T02:29:18;99289.75;;;5.96;69.04
72798;BME280;61084;55.816;37.036;2023-04-29T02:31:44;99289.59;;;6.00;68.39
72798;BME280;61084;55.816;37.036;2023-04-29T02:34:11;99294.59;;;6.06;68.14
72798;BME280;61084;55.816;37.036;2023-04-29T02:36:36;99299.59;;;6.13;68.06
72798;BME280;61084;55.816;37.036;2023-04-29T02:39:02;99303.00;;;6.15;68.12
72798;BME280;61084;55.816;37.036;2023-04-29T02:41:29;99298.66;;;6.14;68.22
72798;BME280;61084;55.816;37.036;2023-04-29T02:43:55;99298.00;;;6.08;68.01
72798;BME280;61084;55.816;37.036;2023-04-29T02:46:21;99303.22;;;6.08;68.61
72798;BME280;61084;55.816;37.036;2023-04-29T02:48:47;99301.44;;;6.09;67.77
72798;BME280;61084;55.816;37.036;2023-04-29T02:51:14;99302.25;;;6.11;67.61
72798;BME280;61084;55.816;37.036;2023-04-29T02:53:39;99306.72;;;6.07;66.98
72798;BME280;61084;55.816;37.036;2023-04-29T02:56:05;99303.38;;;6.04;68.38
72798;BME280;61084;55.816;37.036;2023-04-29T02:58:31;99306.03;;;6.02;68.33
72798;BME280;61084;55.816;37.036;2023-04-29T03:00:57;99314.53;;;6.07;68.52
72798;BME280;61084;55.816;37.036;2023-04-29T03:03:23;99321.38;;;6.10;68.31
72798;BME280;61084;55.816;37.036;2023-04-29T03:05:49;99331.97;;;6.05;66.02
72798;BME280;61084;55.816;37.036;2023-04-29T03:08:15;99323.47;;;6.00;68.32
72798;BME280;61084;55.816;37.036;2023-04-29T03:10:41;99326.06;;;6.00;67.56
72798;BME280;61084;55.816;37.036;2023-04-29T03:13:07;99336.63;;;5.97;68.50
72798;BME280;61084;55.816;37.036;2023-04-29T03:15:35;99343.31;;;6.04;67.85
72798;BME280;61084;55.816;37.036;2023-04-29T03:18:01;99343.09;;;6.11;68.06
72798;BME280;61084;55.816;37.036;2023-04-29T03:20:29;99348.25;;;6.12;68.11
72798;BME280;61084;55.816;37.036;2023-04-29T03:23:00;99344.75;;;6.13;67.79
72798;BME280;61084;55.816;37.036;2023-04-29T03:25:27;99350.00;;;6.12;66.92
72798;BME280;61084;55.816;37.036;2023-04-29T03:27:53;99360.41;;;6.12;67.76
72798;BME280;61084;55.816;37.036;2023-04-29T03:30:19;99378.63;;;6.13;68.32
72798;BME280;61084;55.816;37.036;2023-04-29T03:32:49;99383.81;;;6.13;68.08
72798;BME280;61084;55.816;37.036;2023-04-29T03:35:15;99381.16;;;6.15;67.67
72798;BME280;61084;55.816;37.036;2023-04-29T03:37:59;99380.06;;;6.20;67.87
72798;BME280;61084;55.816;37.036;2023-04-29T03:40:29;99384.34;;;6.23;67.96
72798;BME280;61084;55.816;37.036;2023-04-29T03:42:55;99387.63;;;6.28;67.58
72798;BME280;61084;55.816;37.036;2023-04-29T03:45:21;99390.13;;;6.31;67.30
72798;BME280;61084;55.816;37.036;2023-04-29T03:47:47;99383.13;;;6.33;67.00
72798;BME280;61084;55.816;37.036;2023-04-29T03:50:14;99388.34;;;6.33;67.56
72798;BME280;61084;55.816;37.036;2023-04-29T03:52:40;99398.69;;;6.34;67.06
72798;BME280;61084;55.816;37.036;2023-04-29T03:55:10;99395.16;;;6.35;67.56
72798;BME280;61084;55.816;37.036;2023-04-29T03:57:37;99386.28;;;6.41;67.58
72798;BME280;61084;55.816;37.036;2023-04-29T04:00:04;99406.03;;;6.48;67.62
72798;BME280;61084;55.816;37.036;2023-04-29T04:02:39;99401.53;;;6.51;67.92
72798;BME280;61084;55.816;37.036;2023-04-29T04:05:06;99399.78;;;6.52;67.74
72798;BME280;61084;55.816;37.036;2023-04-29T04:07:32;99401.38;;;6.56;67.77
72798;BME280;61084;55.816;37.036;2023-04-29T04:10:20;99405.63;;;6.58;67.28
72798;BME280;61084;55.816;37.036;2023-04-29T04:12:46;99405.47;;;6.63;67.68
72798;BME280;61084;55.816;37.036;2023-04-29T04:15:12;99402.78;;;6.64;67.74
72798;BME280;61084;55.816;37.036;2023-04-29T04:17:38;99405.31;;;6.66;67.67
72798;BME280;61084;55.816;37.036;2023-04-29T04:20:06;99406.00;;;6.71;67.28
72798;BME280;61084;55.816;37.036;2023-04-29T04:22:31;99406.91;;;6.70;67.83
72798;BME280;61084;55.816;37.036;2023-04-29T04:25:12;99403.34;;;6.72;67.45
72798;BME280;61084;55.816;37.036;2023-04-29T04:27:38;99394.38;;;6.79;67.61
72798;BME280;61084;55.816;37.036;2023-04-29T04:30:08;99409.06;;;6.82;67.54
72798;BME280;61084;55.816;37.036;2023-04-29T04:32:34;99397.78;;;6.81;67.13
72798;BME280;61084;55.816;37.036;2023-04-29T04:35:00;99407.38;;;6.81;66.54
72798;BME280;61084;55.816;37.036;2023-04-29T04:37:26;99406.56;;;6.79;67.03
72798;BME280;61084;55.816;37.036;2023-04-29T04:39:55;99404.66;;;6.84;67.89
72798;BME280;61084;55.816;37.036;2023-04-29T04:42:22;99401.00;;;6.88;67.66
72798;BME280;61084;55.816;37.036;2023-04-29T04:44:52;99403.69;;;6.87;66.95
72798;BME280;61084;55.816;37.036;2023-04-29T04:47:53;99407.38;;;6.81;66.56
72798;BME280;61084;55.816;37.036;2023-04-29T04:50:20;99400.53;;;6.78;66.82
72798;BME280;61084;55.816;37.036;2023-04-29T04:52:48;99407.38;;;6.81;67.19
72798;BME280;61084;55.816;37.036;2023-04-29T04:55:27;99400.31;;;6.83;67.49
72798;BME280;61084;55.816;37.036;2023-04-29T04:57:53;99407.09;;;6.89;67.50
72798;BME280;61084;55.816;37.036;2023-04-29T05:00:21;99395.56;;;6.94;67.14
72798;BME280;61084;55.816;37.036;2023-04-29T05:02:47;99398.16;;;6.94;66.80
72798;BME280;61084;55.816;37.036;2023-04-29T05:05:13;99403.38;;;6.94;66.90
72798;BME280;61084;55.816;37.036;2023-04-29T05:07:41;99397.19;;;6.97;67.38
72798;BME280;61084;55.816;37.036;2023-04-29T05:10:08;99404.00;;;7.01;67.42
72798;BME280;61084;55.816;37.036;2023-04-29T05:12:41;99408.88;;;7.10;67.22
72798;BME280;61084;55.816;37.036;2023-04-29T05:15:07;99407.63;;;7.20;67.35
72798;BME280;61084;55.816;37.036;2023-04-29T05:17:33;99408.94;;;7.30;66.78
72798;BME280;61084;55.816;37.036;2023-04-29T05:20:01;99410.53;;;7.34;67.80
72798;BME280;61084;55.816;37.036;2023-04-29T05:22:31;99411.31;;;7.36;67.31
72798;BME280;61084;55.816;37.036;2023-04-29T05:24:57;99414.59;;;7.41;66.77
72798;BME280;61084;55.816;37.036;2023-04-29T05:27:29;99412.63;;;7.46;67.37
72798;BME280;61084;55.816;37.036;2023-04-29T05:29:56;99414.34;;;7.47;66.17
72798;BME280;61084;55.816;37.036;2023-04-29T05:32:22;99419.06;;;7.37;66.43
72798;BME280;61084;55.816;37.036;2023-04-29T05:34:48;99407.13;;;7.32;65.12
72798;BME280;61084;55.816;37.036;2023-04-29T05:37:14;99415.19;;;7.26;66.62
72798;BME280;61084;55.816;37.036;2023-04-29T05:40:02;99417.84;;;7.24;66.12
72798;BME280;61084;55.816;37.036;2023-04-29T05:42:29;99420.25;;;7.30;66.45
72798;BME280;61084;55.816;37.036;2023-04-29T05:44:55;99425.16;;;7.38;66.18
72798;BME280;61084;55.816;37.036;2023-04-29T05:47:21;99420.53;;;7.44;66.05
72798;BME280;61084;55.816;37.036;2023-04-29T05:49:47;99421.31;;;7.46;66.30
72798;BME280;61084;55.816;37.036;2023-04-29T05:52:14;99426.53;;;7.46;66.48
72798;BME280;61084;55.816;37.036;2023-04-29T05:54:44;99421.75;;;7.57;66.90
72798;BME280;61084;55.816;37.036;2023-04-29T05:57:11;99419.63;;;7.67;66.21
72798;BME280;61084;55.816;37.036;2023-04-29T05:59:39;99424.66;;;7.72;66.79
72798;BME280;61084;55.816;37.036;2023-04-29T06:02:23;99427.97;;;7.75;66.87
72798;BME280;61084;55.816;37.036;2023-04-29T06:04:49;99421.84;;;7.76;66.39
72798;BME280;61084;55.816;37.036;2023-04-29T06:07:24;99431.91;;;7.85;66.68
72798;BME280;61084;55.816;37.036;2023-04-29T06:10:12;99432.50;;;7.92;66.42
72798;BME280;61084;55.816;37.036;2023-04-29T06:15:56;99435.78;;;7.97;66.08
72798;BME280;61084;55.816;37.036;2023-04-29T06:18:23;99440.22;;;7.95;66.87
72798;BME280;61084;55.816;37.036;2023-04-29T06:20:49;99448.78;;;7.98;66.40
72798;BME280;61084;55.816;37.036;2023-04-29T06:23:15;99442.53;;;8.02;66.55
72798;BME280;61084;55.816;37.036;2023-04-29T06:25:41;99445.59;;;8.12;66.57
72798;BME280;61084;55.816;37.036;2023-04-29T06:28:08;99439.81;;;8.25;66.80
72798;BME280;61084;55.816;37.036;2023-04-29T06:30:35;99444.00;;;8.29;65.46
72798;BME280;61084;55.816;37.036;2023-04-29T06:33:01;99447.19;;;8.36;65.62
72798;BME280;61084;55.816;37.036;2023-04-29T06:35:27;99455.44;;;8.47;65.75
72798;BME280;61084;55.816;37.036;2023-04-29T06:38:13;99460.38;;;8.53;65.51
72798;BME280;61084;55.816;37.036;2023-04-29T06:40:38;99460.34;;;8.55;65.14
72798;BME280;61084;55.816;37.036;2023-04-29T06:43:25;99459.00;;;8.65;64.76
72798;BME280;61084;55.816;37.036;2023-04-29T06:46:09;99456.97;;;8.71;65.27
72798;BME280;61084;55.816;37.036;2023-04-29T06:48:44;99468.88;;;8.78;65.25
72798;BME280;61084;55.816;37.036;2023-04-29T06:51:10;99473.53;;;8.72;64.74
72798;BME280;61084;55.816;37.036;2023-04-29T06:53:37;99473.56;;;8.70;64.60
72798;BME280;61084;55.816;37.036;2023-04-29T06:56:04;99471.81;;;8.71;63.95
72798;BME280;61084;55.816;37.036;2023-04-29T06:58:30;99475.94;;;8.76;64.63
72798;BME280;61084;55.816;37.036;2023-04-29T07:00:56;99477.31;;;8.85;64.47
72798;BME280;61084;55.816;37.036;2023-04-29T07:03:22;99481.84;;;9.00;64.92
72798;BME280;61084;55.816;37.036;2023-04-29T07:05:49;99482.25;;;9.09;64.51
72798;BME280;61084;55.816;37.036;2023-04-29T07:08:15;99479.22;;;9.19;64.04
72798;BME280;61084;55.816;37.036;2023-04-29T07:10:40;99485.47;;;9.35;64.15
72798;BME280;61084;55.816;37.036;2023-04-29T07:13:06;99491.09;;;9.44;64.63
72798;BME280;61084;55.816;37.036;2023-04-29T07:15:33;99488.56;;;9.43;63.94
72798;BME280;61084;55.816;37.036;2023-04-29T07:17:59;99491.88;;;9.46;63.55
72798;BME280;61084;55.816;37.036;2023-04-29T07:20:25;99495.84;;;9.55;63.95
72798;BME280;61084;55.816;37.036;2023-04-29T07:22:54;99504.00;;;9.67;63.80
72798;BME280;61084;55.816;37.036;2023-04-29T07:25:20;99503.59;;;9.75;62.71
72798;BME280;61084;55.816;37.036;2023-04-29T07:27:46;99498.06;;;9.81;62.56
72798;BME280;61084;55.816;37.036;2023-04-29T07:30:12;99502.19;;;9.86;62.33
72798;BME280;61084;55.816;37.036;2023-04-29T07:32:38;99494.41;;;10.02;62.34
72798;BME280;61084;55.816;37.036;2023-04-29T07:35:04;99497.44;;;10.12;62.31
72798;BME280;61084;55.816;37.036;2023-04-29T07:37:31;99506.81;;;10.17;62.01
72798;BME280;61084;55.816;37.036;2023-04-29T07:39:57;99512.06;;;10.17;61.57
72798;BME280;61084;55.816;37.036;2023-04-29T07:42:23;99516.38;;;10.18;59.92
72798;BME280;61084;55.816;37.036;2023-04-29T07:44:50;99513.59;;;10.21;61.88
72798;BME280;61084;55.816;37.036;2023-04-29T07:47:17;99506.81;;;10.34;61.67
72798;BME280;61084;55.816;37.036;2023-04-29T07:49:44;99512.75;;;10.55;61.50
72798;BME280;61084;55.816;37.036;2023-04-29T07:52:10;99507.22;;;10.77;60.97
72798;BME280;61084;55.816;37.036;2023-04-29T07:54:36;99515.50;;;10.86;60.81
72798;BME280;61084;55.816;37.036;2023-04-29T07:57:03;99505.88;;;11.02;60.53
72798;BME280;61084;55.816;37.036;2023-04-29T07:59:30;99512.19;;;11.15;59.96
72798;BME280;61084;55.816;37.036;2023-04-29T08:01:56;99516.50;;;11.16;59.67
72798;BME280;61084;55.816;37.036;2023-04-29T08:04:23;99518.13;;;11.19;59.37
72798;BME280;61084;55.816;37.036;2023-04-29T08:07:03;99522.22;;;11.40;59.52
72798;BME280;61084;55.816;37.036;2023-04-29T08:09:29;99521.56;;;11.52;59.57
72798;BME280;61084;55.816;37.036;2023-04-29T08:11:55;99532.38;;;11.46;59.19
72798;BME280;61084;55.816;37.036;2023-04-29T08:14:20;99532.66;;;11.42;59.45
72798;BME280;61084;55.816;37.036;2023-04-29T08:16:46;99535.53;;;11.37;57.84
72798;BME280;61084;55.816;37.036;2023-04-29T08:19:13;99540.13;;;11.16;57.82
72798;BME280;61084;55.816;37.036;2023-04-29T08:21:39;99548.63;;;11.21;57.70
72798;BME280;61084;55.816;37.036;2023-04-29T08:24:06;99542.22;;;11.43;58.35
72798;BME280;61084;55.816;37.036;2023-04-29T08:26:31;99544.97;;;11.57;57.34
72798;BME280;61084;55.816;37.036;2023-04-29T08:28:57;99535.13;;;11.60;57.09
72798;BME280;61084;55.816;37.036;2023-04-29T08:31:23;99537.41;;;11.66;55.45
72798;BME280;61084;55.816;37.036;2023-04-29T08:33:50;99536.69;;;11.80;56.51
72798;BME280;61084;55.816;37.036;2023-04-29T08:36:16;99536.59;;;11.97;57.17
72798;BME280;61084;55.816;37.036;2023-04-29T08:38:42;99546.69;;;12.04;57.12
72798;BME280;61084;55.816;37.036;2023-04-29T08:41:08;99542.78;;;11.96;55.52
72798;BME280;61084;55.816;37.036;2023-04-29T08:43:35;99532.34;;;11.94;55.80
72798;BME280;61084;55.816;37.036;2023-04-29T08:46:05;99535.31;;;12.04;55.89
72798;BME280;61084;55.816;37.036;2023-04-29T08:48:32;99550.66;;;12.11;55.04
72798;BME280;61084;55.816;37.036;2023-04-29T08:51:00;99539.38;;;12.09;56.43
72798;BME280;61084;55.816;37.036;2023-04-29T08:53:27;99541.94;;;11.95;53.63
72798;BME280;61084;55.816;37.036;2023-04-29T08:55:54;99544.06;;;12.04;53.82
72798;BME280;61084;55.816;37.036;2023-04-29T08:58:24;99545.63;;;12.23;52.97
72798;BME280;61084;55.816;37.036;2023-04-29T09:00:50;99534.84;;;12.27;53.48
72798;BME280;61084;55.816;37.036;2023-04-29T09:03:26;99547.34;;;12.24;49.67
72798;BME280;61084;55.816;37.036;2023-04-29T09:05:54;99558.03;;;12.21;52.29
72798;BME280;61084;55.816;37.036;2023-04-29T09:08:22;99556.25;;;12.21;52.82
72798;BME280;61084;55.816;37.036;2023-04-29T09:10:51;99558.38;;;12.15;53.15
72798;BME280;61084;55.816;37.036;2023-04-29T09:13:29;99551.34;;;11.99;50.27
72798;BME280;61084;55.816;37.036;2023-04-29T09:15:56;99552.88;;;12.03;50.19
72798;BME280;61084;55.816;37.036;2023-04-29T09:18:48;99558.88;;;12.21;49.85
72798;BME280;61084;55.816;37.036;2023-04-29T09:21:21;99567.19;;;12.29;51.75
72798;BME280;61084;55.816;37.036;2023-04-29T09:23:52;99564.34;;;12.48;50.75
72798;BME280;61084;55.816;37.036;2023-04-29T09:26:19;99568.75;;;12.47;49.28
72798;BME280;61084;55.816;37.036;2023-04-29T09:28:45;99570.75;;;12.58;48.47
72798;BME280;61084;55.816;37.036;2023-04-29T09:31:13;99564.06;;;12.82;51.58
72798;BME280;61084;55.816;37.036;2023-04-29T09:33:53;99569.91;;;12.87;47.79
72798;BME280;61084;55.816;37.036;2023-04-29T09:36:49;99572.91;;;13.11;49.67
72798;BME280;61084;55.816;37.036;2023-04-29T09:39:23;99574.69;;;13.24;46.87
72798;BME280;61084;55.816;37.036;2023-04-29T09:44:26;99572.06;;;13.38;45.52
72798;BME280;61084;55.816;37.036;2023-04-29T09:46:57;99570.53;;;13.48;46.48
72798;BME280;61084;55.816;37.036;2023-04-29T09:49:29;99564.91;;;13.54;44.00
72798;BME280;61084;55.816;37.036;2023-04-29T09:51:59;99564.41;;;13.76;47.24
72798;BME280;61084;55.816;37.036;2023-04-29T09:54:29;99573.31;;;13.88;43.99
72798;BME280;61084;55.816;37.036;2023-04-29T09:56:57;99563.59;;;13.88;45.89
72798;BME280;61084;55.816;37.036;2023-04-29T09:59:23;99565.78;;;13.96;45.19
72798;BME280;61084;55.816;37.036;2023-04-29T10:01:54;99574.22;;;14.01;43.07
72798;BME280;61084;55.816;37.036;2023-04-29T10:04:22;99581.69;;;13.94;45.66
72798;BME280;61084;55.816;37.036;2023-04-29T10:06:51;99593.59;;;13.87;41.77
72798;BME280;61084;55.816;37.036;2023-04-29T10:09:36;99601.41;;;13.89;46.62
72798;BME280;61084;55.816;37.036;2023-04-29T10:12:05;99590.97;;;13.87;44.00
72798;BME280;61084;55.816;37.036;2023-04-29T10:14:38;99585.75;;;14.00;42.81
72798;BME280;61084;55.816;37.036;2023-04-29T10:17:45;99579.31;;;14.04;44.30
72798;BME280;61084;55.816;37.036;2023-04-29T10:20:21;99588.03;;;13.92;42.86
72798;BME280;61084;55.816;37.036;2023-04-29T10:22:50;99597.22;;;13.99;44.58
72798;BME280;61084;55.816;37.036;2023-04-29T10:25:21;99593.25;;;14.06;39.95
72798;BME280;61084;55.816;37.036;2023-04-29T10:27:48;99592.09;;;14.24;42.44
72798;BME280;61084;55.816;37.036;2023-04-29T10:30:19;99601.84;;;14.50;45.46
72798;BME280;61084;55.816;37.036;2023-04-29T10:35:29;99613.78;;;14.29;44.54
72798;BME280;61084;55.816;37.036;2023-04-29T10:38:00;99606.97;;;14.25;43.76
72798;BME280;61084;55.816;37.036;2023-04-29T10:40:30;99613.78;;;14.15;41.29
72798;BME280;61084;55.816;37.036;2023-04-29T10:43:01;99624.66;;;14.10;43.05
72798;BME280;61084;55.816;37.036;2023-04-29T10:45:28;99627.09;;;14.13;41.93
72798;BME280;61084;55.816;37.036;2023-04-29T10:53:04;99627.56;;;14.73;45.51
72798;BME280;61084;55.816;37.036;2023-04-29T10:55:31;99623.03;;;14.75;44.83
72798;BME280;61084;55.816;37.036;2023-04-29T10:58:02;99625.81;;;14.86;44.41
72798;BME280;61084;55.816;37.036;2023-04-29T11:00:30;99620.63;;;14.85;42.17
72798;BME280;61084;55.816;37.036;2023-04-29T11:02:58;99632.41;;;14.93;43.72
72798;BME280;61084;55.816;37.036;2023-04-29T11:05:35;99625.97;;;15.10;43.09
72798;BME280;61084;55.816;37.036;2023-04-29T11:08:19;99623.13;;;15.38;44.09
72798;BME280;61084;55.816;37.036;2023-04-29T11:10:53;99627.66;;;15.36;39.90
72798;BME280;61084;55.816;37.036;2023-04-29T11:13:26;99617.75;;;15.40;40.61
72798;BME280;61084;55.816;37.036;2023-04-29T11:16:13;99631.50;;;15.45;38.96
72798;BME280;61084;55.816;37.036;2023-04-29T11:21:32;99618.69;;;15.64;37.26
72798;BME280;61084;55.816;37.036;2023-04-29T11:23:59;99626.34;;;15.56;41.67
72798;BME280;61084;55.816;37.036;2023-04-29T11:26:25;99629.53;;;15.48;40.64
72798;BME280;61084;55.816;37.036;2023-04-29T11:29:10;99628.03;;;15.69;41.04
72798;BME280;61084;55.816;37.036;2023-04-29T11:32:01;99630.09;;;16.02;36.98
72798;BME280;61084;55.816;37.036;2023-04-29T11:34:27;99634.72;;;16.11;39.69
72798;BME280;61084;55.816;37.036;2023-04-29T11:36:53;99644.09;;;16.28;41.40
72798;BME280;61084;55.816;37.036;2023-04-29T11:39:18;99641.03;;;16.21;38.14
72798;BME280;61084;55.816;37.036;2023-04-29T11:44:51;99635.66;;;16.10;41.98
72798;BME280;61084;55.816;37.036;2023-04-29T11:47:17;99636.22;;;16.03;41.91
72798;BME280;61084;55.816;37.036;2023-04-29T11:49:43;99635.16;;;16.05;40.62
72798;BME280;61084;55.816;37.036;2023-04-29T11:52:09;99647.81;;;16.25;41.35
72798;BME280;61084;55.816;37.036;2023-04-29T11:54:36;99640.50;;;16.29;41.18
72798;BME280;61084;55.816;37.036;2023-04-29T11:57:20;99642.44;;;16.14;40.30
72798;BME280;61084;55.816;37.036;2023-04-29T11:59:46;99643.75;;;15.96;40.32
72798;BME280;61084;55.816;37.036;2023-04-29T12:02:12;99638.47;;;15.96;39.58
72798;BME280;61084;55.816;37.036;2023-04-29T12:04:45;99638.09;;;16.13;38.34
72798;BME280;61084;55.816;37.036;2023-04-29T12:07:20;99620.19;;;16.40;39.09
72798;BME280;61084;55.816;37.036;2023-04-29T12:09:46;99624.47;;;16.67;39.49
72798;BME280;61084;55.816;37.036;2023-04-29T12:12:12;99621.69;;;16.68;38.14
72798;BME280;61084;55.816;37.036;2023-04-29T12:14:57;99628.88;;;16.79;38.00
72798;BME280;61084;55.816;37.036;2023-04-29T12:17:23;99630.94;;;16.86;37.33
72798;BME280;61084;55.816;37.036;2023-04-29T12:19:49;99632.72;;;17.09;39.72
72798;BME280;61084;55.816;37.036;2023-04-29T12:22:14;99623.91;;;17.09;38.54
72798;BME280;61084;55.816;37.036;2023-04-29T12:24:40;99622.75;;;17.24;37.24
72798;BME280;61084;55.816;37.036;2023-04-29T12:27:09;99618.56;;;17.44;35.20
72798;BME280;61084;55.816;37.036;2023-04-29T12:29:36;99631.50;;;17.59;35.05
72798;BME280;61084;55.816;37.036;2023-04-29T12:32:03;99625.72;;;17.65;36.79
72798;BME280;61084;55.816;37.036;2023-04-29T12:34:30;99617.13;;;17.95;36.36
72798;BME280;61084;55.816;37.036;2023-04-29T12:36:59;99621.97;;;17.90;31.89
72798;BME280;61084;55.816;37.036;2023-04-29T12:39:29;99631.84;;;18.10;34.35
72798;BME280;61084;55.816;37.036;2023-04-29T12:41:59;99631.81;;;18.32;38.22
72798;BME280;61084;55.816;37.036;2023-04-29T12:44:34;99626.88;;;18.28;31.58
72798;BME280;61084;55.816;37.036;2023-04-29T12:47:07;99624.06;;;18.29;34.05
72798;BME280;61084;55.816;37.036;2023-04-29T12:49:33;99633.28;;;18.25;35.72
72798;BME280;61084;55.816;37.036;2023-04-29T12:51:59;99639.00;;;17.98;37.31
72798;BME280;61084;55.816;37.036;2023-04-29T12:54:24;99636.94;;;17.69;36.19
72798;BME280;61084;55.816;37.036;2023-04-29T12:56:50;99636.34;;;17.65;36.20
72798;BME280;61084;55.816;37.036;2023-04-29T12:59:16;99640.38;;;17.47;35.26
72798;BME280;61084;55.816;37.036;2023-04-29T13:01:42;99643.06;;;17.12;36.93
72798;BME280;61084;55.816;37.036;2023-04-29T13:04:09;99645.94;;;16.98;35.39
72798;BME280;61084;55.816;37.036;2023-04-29T13:06:36;99650.59;;;16.95;36.11
72798;BME280;61084;55.816;37.036;2023-04-29T13:09:05;99641.78;;;17.18;36.90
72798;BME280;61084;55.816;37.036;2023-04-29T13:11:31;99643.13;;;17.34;36.27
72798;BME280;61084;55.816;37.036;2023-04-29T13:13:57;99637.72;;;17.47;35.55
72798;BME280;61084;55.816;37.036;2023-04-29T13:16:23;99644.31;;;17.65;35.78
72798;BME280;61084;55.816;37.036;2023-04-29T13:18:50;99637.06;;;17.89;36.95
72798;BME280;61084;55.816;37.036;2023-04-29T13:21:15;99637.06;;;18.00;34.96
72798;BME280;61084;55.816;37.036;2023-04-29T13:23:41;99639.59;;;18.02;34.43
72798;BME280;61084;55.816;37.036;2023-04-29T13:26:07;99632.91;;;18.19;34.44
72798;BME280;61084;55.816;37.036;2023-04-29T13:28:34;99631.44;;;18.48;33.97
72798;BME280;61084;55.816;37.036;2023-04-29T13:30:59;99626.44;;;18.65;34.13
72798;BME280;61084;55.816;37.036;2023-04-29T13:33:25;99628.38;;;18.95;33.06
72798;BME280;61084;55.816;37.036;2023-04-29T13:35:51;99625.09;;;19.03;33.11
72798;BME280;61084;55.816;37.036;2023-04-29T13:38:17;99630.78;;;19.19;32.73